Time;durP1;ratioP1;P1;durP2;ratioP2;P2;SDS_P1;SDS_P2;PMS_P1;PMS_P2;Temp;Humidity;BMP_temperature;BMP_pressure;BME280_temperature;BME280_humidity;BME280_pressure;Samples;Min_cycle;Max_cycle;Signal;HPM_P1;HPM_P2
2023/03/09 00:00:30;;;;;;;2.60;2.42;;;;;;;;;;4971635;28;20492;-84
2023/03/09 00:02:57;;;;;;;4.90;4.35;;;;;;;;;;4991246;28;20052;-84
2023/03/09 00:05:25;;;;;;;5.28;3.20;;;;;;;;;;4989726;28;20065;-83
2023/03/09 00:07:54;;;;;;;8.27;3.13;;;;;;;;;;4987175;28;20684;-83
2023/03/09 00:10:22;;;;;;;4.40;3.50;;;;;;;;;;4989780;28;20321;-83
2023/03/09 00:12:49;;;;;;;5.18;3.40;;;;;;;;;;4990313;28;20066;-84
2023/03/09 00:15:16;;;;;;;4.47;3.38;;;;;;;;;;4988371;28;20057;-84
2023/03/09 00:17:45;;;;;;;4.25;3.80;;;;;;;;;;4990196;28;20101;-84
2023/03/09 00:20:17;;;;;;;5.15;3.05;;;;;;;;;;4991727;28;20050;-84
2023/03/09 00:22:47;;;;;;;2.70;2.47;;;;;;;;;;4989895;28;20041;-83
2023/03/09 00:25:15;;;;;;;7.07;3.28;;;;;;;;;;4989065;28;20050;-84
2023/03/09 00:27:43;;;;;;;4.32;2.63;;;;;;;;;;4988642;28;20173;-84
2023/03/09 00:30:12;;;;;;;6.38;3.13;;;;;;;;;;4973400;28;20050;-84
2023/03/09 00:32:40;;;;;;;4.72;2.83;;;;;;;;;;4992196;28;20061;-85
2023/03/09 00:35:08;;;;;;;4.15;2.83;;;;;;;;;;4992166;28;20088;-84
2023/03/09 00:37:37;;;;;;;5.53;2.97;;;;;;;;;;4975899;28;20054;-84
2023/03/09 00:40:06;;;;;;;5.43;2.90;;;;;;;;;;4973804;28;20129;-83
2023/03/09 00:42:33;;;;;;;5.07;3.00;;;;;;;;;;4975324;28;20053;-84
2023/03/09 00:45:00;;;;;;;6.53;3.13;;;;;;;;;;4991400;28;20057;-83
2023/03/09 00:47:28;;;;;;;3.25;2.95;;;;;;;;;;4974269;28;20125;-83
2023/03/09 00:49:55;;;;;;;5.75;3.42;;;;;;;;;;4973488;28;20082;-84
2023/03/09 00:52:23;;;;;;;4.68;3.08;;;;;;;;;;4974545;28;20052;-84
2023/03/09 00:54:53;;;;;;;6.47;3.55;;;;;;;;;;4988959;28;20485;-83
2023/03/09 00:57:21;;;;;;;4.10;3.67;;;;;;;;;;4990015;28;20549;-83
2023/03/09 00:59:54;;;;;;;7.07;4.20;;;;;;;;;;4978405;28;20058;-83
2023/03/09 01:02:22;;;;;;;4.45;3.22;;;;;;;;;;4977146;28;20034;-85
2023/03/09 01:04:50;;;;;;;5.93;3.28;;;;;;;;;;4970413;28;20448;-84
2023/03/09 01:07:18;;;;;;;5.22;3.53;;;;;;;;;;4992384;28;20054;-84
2023/03/09 01:09:47;;;;;;;3.60;3.25;;;;;;;;;;4989144;28;20129;-83
2023/03/09 01:12:14;;;;;;;6.65;4.07;;;;;;;;;;4990421;28;20054;-83
2023/03/09 01:14:41;;;;;;;4.72;3.72;;;;;;;;;;4989886;28;20050;-84
2023/03/09 01:17:10;;;;;;;5.63;4.43;;;;;;;;;;4973098;28;20038;-83
2023/03/09 01:19:38;;;;;;;5.40;3.88;;;;;;;;;;4974142;28;20057;-83
2023/03/09 01:22:05;;;;;;;6.25;4.15;;;;;;;;;;4990128;28;20050;-83
2023/03/09 01:24:33;;;;;;;5.95;5.32;;;;;;;;;;4973222;28;20054;-84
2023/03/09 01:27:00;;;;;;;6.57;4.53;;;;;;;;;;4997917;28;20043;-83
2023/03/09 01:29:27;;;;;;;5.25;4.65;;;;;;;;;;4974843;28;20054;-83
2023/03/09 01:31:54;;;;;;;5.47;4.47;;;;;;;;;;4982223;28;20042;-83
2023/03/09 01:34:21;;;;;;;7.97;4.70;;;;;;;;;;4991084;28;20058;-83
2023/03/09 01:36:49;;;;;;;5.00;4.28;;;;;;;;;;4990310;28;20050;-83
2023/03/09 01:39:16;;;;;;;8.95;4.43;;;;;;;;;;4973223;28;20056;-83
2023/03/09 01:41:46;;;;;;;7.22;3.88;;;;;;;;;;4982808;28;20336;-82
2023/03/09 01:44:13;;;;;;;4.53;3.72;;;;;;;;;;4999250;28;20046;-83
2023/03/09 01:46:48;;;;;;;5.40;3.90;;;;;;;;;;5000562;28;20464;-83
2023/03/09 01:49:19;;;;;;;3.47;3.17;;;;;;;;;;4978404;28;20050;-83
2023/03/09 01:51:58;;;;;;;3.92;2.53;;;;;;;;;;4994645;28;20137;-83
2023/03/09 01:54:33;;;;;;;3.90;3.35;;;;;;;;;;5015079;28;20069;-82
2023/03/09 01:57:05;;;;;;;3.70;3.20;;;;;;;;;;4997886;28;20095;-82
2023/03/09 01:59:33;;;;;;;5.55;3.35;;;;;;;;;;4990907;28;20047;-83
2023/03/09 02:02:01;;;;;;;4.82;3.38;;;;;;;;;;4973295;28;20053;-83
2023/03/09 02:04:32;;;;;;;4.85;3.47;;;;;;;;;;4974207;28;20186;-82
2023/03/09 02:06:59;;;;;;;3.72;3.42;;;;;;;;;;4991112;28;20050;-83
2023/03/09 02:09:32;;;;;;;4.20;3.53;;;;;;;;;;4973613;28;20101;-82
2023/03/09 02:12:02;;;;;;;6.47;4.25;;;;;;;;;;4976965;28;20054;-82
2023/03/09 02:14:32;;;;;;;8.27;4.60;;;;;;;;;;4974433;28;20121;-82
2023/03/09 02:16:59;;;;;;;6.50;4.00;;;;;;;;;;4973853;28;20415;-82
2023/03/09 02:19:31;;;;;;;5.97;4.28;;;;;;;;;;4994990;28;20062;-82
2023/03/09 02:21:58;;;;;;;4.38;3.78;;;;;;;;;;4979915;28;20084;-82
2023/03/09 02:24:35;;;;;;;9.68;4.65;;;;;;;;;;4999868;28;20066;-82
2023/03/09 02:27:10;;;;;;;7.18;4.57;;;;;;;;;;4976168;28;20054;-82
2023/03/09 02:29:37;;;;;;;8.65;5.13;;;;;;;;;;4997759;28;20125;-84
2023/03/09 02:32:05;;;;;;;6.68;4.07;;;;;;;;;;5007304;28;20050;-82
2023/03/09 02:34:32;;;;;;;7.35;4.88;;;;;;;;;;4987882;28;20050;-82
2023/03/09 02:37:00;;;;;;;9.00;4.65;;;;;;;;;;4993259;28;20073;-82
2023/03/09 02:39:42;;;;;;;8.07;4.70;;;;;;;;;;4999210;28;20045;-82
2023/03/09 02:42:10;;;;;;;7.47;4.57;;;;;;;;;;5000139;28;20054;-82
2023/03/09 02:44:39;;;;;;;5.97;4.65;;;;;;;;;;5000170;28;20044;-82
2023/03/09 02:47:08;;;;;;;5.32;4.22;;;;;;;;;;5003519;28;20112;-83
2023/03/09 02:49:37;;;;;;;6.80;4.43;;;;;;;;;;4978499;28;20058;-82
2023/03/09 02:52:05;;;;;;;10.55;4.82;;;;;;;;;;4976837;28;20088;-82
2023/03/09 02:54:32;;;;;;;11.27;4.43;;;;;;;;;;4976829;28;20457;-82
2023/03/09 02:57:00;;;;;;;7.90;4.35;;;;;;;;;;4976546;28;20069;-82
2023/03/09 02:59:27;;;;;;;16.00;6.78;;;;;;;;;;4975980;28;20050;-83
2023/03/09 03:01:54;;;;;;;24.08;7.93;;;;;;;;;;4975999;28;20052;-82
2023/03/09 03:04:22;;;;;;;9.40;5.65;;;;;;;;;;4976660;28;20042;-82
2023/03/09 03:06:51;;;;;;;9.20;5.07;;;;;;;;;;4975969;28;20070;-82
2023/03/09 03:09:19;;;;;;;10.88;5.93;;;;;;;;;;4976373;28;20157;-83
2023/03/09 03:11:46;;;;;;;8.80;5.38;;;;;;;;;;4975905;28;20054;-83
2023/03/09 03:14:14;;;;;;;9.90;5.80;;;;;;;;;;4976792;28;20054;-82
2023/03/09 03:16:42;;;;;;;15.57;6.13;;;;;;;;;;4976208;28;20054;-82
2023/03/09 03:19:10;;;;;;;15.73;6.25;;;;;;;;;;4976801;28;20047;-82
2023/03/09 03:21:38;;;;;;;10.90;5.70;;;;;;;;;;4976280;28;20046;-82
2023/03/09 03:24:06;;;;;;;10.10;5.97;;;;;;;;;;4976139;28;20508;-83
2023/03/09 03:26:36;;;;;;;8.93;5.88;;;;;;;;;;4975972;28;20054;-82
2023/03/09 03:29:08;;;;;;;6.40;4.97;;;;;;;;;;4975971;28;20057;-82
2023/03/09 03:31:36;;;;;;;4.15;3.42;;;;;;;;;;4975512;28;20137;-82
2023/03/09 03:34:03;;;;;;;4.30;3.28;;;;;;;;;;4976645;28;20354;-83
2023/03/09 03:36:36;;;;;;;3.88;2.45;;;;;;;;;;4975912;28;20744;-83
2023/03/09 03:39:05;;;;;;;2.78;2.42;;;;;;;;;;4993359;28;20130;-83
2023/03/09 03:41:32;;;;;;;2.53;2.15;;;;;;;;;;4975790;28;20053;-84
2023/03/09 03:44:05;;;;;;;2.63;2.20;;;;;;;;;;4976093;28;20397;-83
2023/03/09 03:46:34;;;;;;;55.75;50.95;;;;;;;;;;4976181;28;20069;-83
2023/03/09 03:49:01;;;;;;;2.72;2.28;;;;;;;;;;4976100;28;20133;-84
2023/03/09 03:51:30;;;;;;;2.95;1.73;;;;;;;;;;4975850;28;20054;-83
2023/03/09 03:53:59;;;;;;;1.48;1.38;;;;;;;;;;4975436;28;20073;-83
2023/03/09 03:56:26;;;;;;;3.13;1.50;;;;;;;;;;4976067;28;20050;-83
2023/03/09 03:58:56;;;;;;;1.33;1.10;;;;;;;;;;4975070;28;20058;-83
2023/03/09 04:01:24;;;;;;;1.00;0.85;;;;;;;;;;4975270;28;20054;-84
2023/03/09 04:03:57;;;;;;;0.88;0.70;;;;;;;;;;4975207;28;20128;-84
2023/03/09 04:06:25;;;;;;;113.78;95.93;;;;;;;;;;4975388;28;20050;-86
2023/03/09 04:08:52;;;;;;;17.60;16.25;;;;;;;;;;4975204;28;20419;-84
2023/03/09 04:11:19;;;;;;;6.70;6.28;;;;;;;;;;4975687;28;20054;-86
2023/03/09 04:13:49;;;;;;;9.73;6.70;;;;;;;;;;4973814;28;20124;-84
2023/03/09 04:16:18;;;;;;;1.77;1.52;;;;;;;;;;4974533;28;20056;-85
2023/03/09 04:18:46;;;;;;;0.30;0.30;;;;;;;;;;4974427;28;20130;-85
2023/03/09 04:21:16;;;;;;;24.45;18.30;;;;;;;;;;4973904;28;20456;-84
2023/03/09 04:23:45;;;;;;;0.82;0.30;;;;;;;;;;4973968;28;20581;-85
2023/03/09 04:26:12;;;;;;;1.80;0.40;;;;;;;;;;4973988;28;20077;-84
2023/03/09 04:28:50;;;;;;;62.15;55.65;;;;;;;;;;4973701;28;20047;-84
2023/03/09 04:31:19;;;;;;;3.78;0.60;;;;;;;;;;4974135;28;20058;-84
2023/03/09 04:33:46;;;;;;;0.57;0.43;;;;;;;;;;4973687;28;20042;-84
2023/03/09 04:36:17;;;;;;;3.03;0.35;;;;;;;;;;4973770;28;20053;-84
2023/03/09 04:38:47;;;;;;;82.88;74.82;;;;;;;;;;4973609;28;20054;-84
2023/03/09 04:41:15;;;;;;;27.20;24.45;;;;;;;;;;4973302;28;20508;-84
2023/03/09 04:43:48;;;;;;;0.32;0.32;;;;;;;;;;4972955;28;20427;-84
2023/03/09 04:46:18;;;;;;;4.60;4.30;;;;;;;;;;4973210;28;20137;-84
2023/03/09 04:48:46;;;;;;;0.88;0.30;;;;;;;;;;4973374;28;20054;-83
2023/03/09 04:51:13;;;;;;;221.25;197.00;;;;;;;;;;4973253;28;20432;-83
2023/03/09 04:53:41;;;;;;;6.43;5.88;;;;;;;;;;4973355;28;20043;-83
2023/03/09 04:56:09;;;;;;;2.75;2.50;;;;;;;;;;4990894;28;20058;-83
2023/03/09 04:58:43;;;;;;;363.10;317.88;;;;;;;;;;4973630;28;20050;-84
2023/03/09 05:01:11;;;;;;;19.63;17.83;;;;;;;;;;4973232;28;20070;-83
2023/03/09 05:03:39;;;;;;;1.83;1.73;;;;;;;;;;4973456;28;20053;-81
2023/03/09 05:06:08;;;;;;;1.30;1.27;;;;;;;;;;4973911;28;20050;-82
2023/03/09 05:08:35;;;;;;;49.78;45.40;;;;;;;;;;4973205;28;20042;-83
2023/03/09 05:11:03;;;;;;;1.60;1.50;;;;;;;;;;4973075;28;20076;-83
2023/03/09 05:13:31;;;;;;;0.30;0.30;;;;;;;;;;4981912;28;20114;-84
2023/03/09 05:15:59;;;;;;;372.42;297.10;;;;;;;;;;4984396;28;20401;-85
2023/03/09 05:18:27;;;;;;;1.05;0.38;;;;;;;;;;4957602;28;20464;-84
2023/03/09 05:20:54;;;;;;;0.30;0.30;;;;;;;;;;4972545;28;20054;-83
2023/03/09 05:23:22;;;;;;;0.47;0.30;;;;;;;;;;4973927;28;20073;-84
2023/03/09 05:25:59;;;;;;;21.45;11.98;;;;;;;;;;4989890;28;20073;-83
2023/03/09 05:28:27;;;;;;;0.40;0.40;;;;;;;;;;4993569;28;20035;-83
2023/03/09 05:30:55;;;;;;;0.30;0.30;;;;;;;;;;4997630;28;20048;-85
2023/03/09 05:33:22;;;;;;;0.50;0.50;;;;;;;;;;4998013;28;20030;-83
2023/03/09 05:35:52;;;;;;;8.55;7.32;;;;;;;;;;5014842;28;20038;-83
2023/03/09 05:38:20;;;;;;;1.45;0.60;;;;;;;;;;4997778;28;20050;-82
2023/03/09 05:40:48;;;;;;;9.50;8.77;;;;;;;;;;5014674;28;20057;-83
2023/03/09 05:43:16;;;;;;;0.50;0.50;;;;;;;;;;4992655;28;20137;-86
2023/03/09 05:45:44;;;;;;;8.68;7.68;;;;;;;;;;4972671;28;20125;-85
2023/03/09 05:48:11;;;;;;;0.50;0.50;;;;;;;;;;4972055;28;20050;-83
2023/03/09 05:50:39;;;;;;;22.38;20.73;;;;;;;;;;4972228;28;20078;-86
2023/03/09 05:53:07;;;;;;;11.15;9.82;;;;;;;;;;4971082;28;20100;-83
2023/03/09 05:55:36;;;;;;;78.22;70.55;;;;;;;;;;4973082;28;20113;-85
2023/03/09 05:58:04;;;;;;;11.02;10.32;;;;;;;;;;4972334;28;20496;-85
2023/03/09 06:00:32;;;;;;;117.32;101.78;;;;;;;;;;4971984;28;20512;-86
2023/03/09 06:03:02;;;;;;;1.02;0.60;;;;;;;;;;4971624;28;20431;-86
2023/03/09 06:05:37;;;;;;;1.25;0.50;;;;;;;;;;4972374;28;20129;-85
2023/03/09 06:08:05;;;;;;;2.75;1.65;;;;;;;;;;4990281;28;20049;-85
2023/03/09 06:10:34;;;;;;;20.25;18.30;;;;;;;;;;4971957;28;20042;-85
2023/03/09 06:13:02;;;;;;;22.77;19.65;;;;;;;;;;4972347;28;20100;-84
2023/03/09 06:15:31;;;;;;;343.58;294.77;;;;;;;;;;4973372;28;20057;-85
2023/03/09 06:17:59;;;;;;;53.75;48.17;;;;;;;;;;4972587;28;20073;-84
2023/03/09 06:20:29;;;;;;;6.82;6.32;;;;;;;;;;4972833;28;20061;-84
2023/03/09 06:22:59;;;;;;;1.98;1.00;;;;;;;;;;4972911;28;20043;-84
2023/03/09 06:25:28;;;;;;;1.35;0.60;;;;;;;;;;4973352;28;20054;-84
2023/03/09 06:27:56;;;;;;;0.90;0.90;;;;;;;;;;4972804;28;20456;-85
2023/03/09 06:30:26;;;;;;;197.68;166.95;;;;;;;;;;4972208;28;20066;-84
2023/03/09 06:32:56;;;;;;;2.70;0.70;;;;;;;;;;4974176;28;20066;-85
2023/03/09 06:35:25;;;;;;;0.88;0.57;;;;;;;;;;4973431;28;20050;-84
2023/03/09 06:37:54;;;;;;;169.68;152.63;;;;;;;;;;4973095;28;20074;-86
2023/03/09 06:40:22;;;;;;;2.90;2.50;;;;;;;;;;4973604;28;20528;-85
2023/03/09 06:42:51;;;;;;;1.00;0.75;;;;;;;;;;4972531;28;20405;-86
2023/03/09 06:45:22;;;;;;;107.35;95.35;;;;;;;;;;4972886;28;20584;-86
2023/03/09 06:47:53;;;;;;;0.30;0.30;;;;;;;;;;4972990;28;20042;-84
2023/03/09 06:50:24;;;;;;;15.52;13.70;;;;;;;;;;4973153;28;20069;-85
2023/03/09 06:52:54;;;;;;;39.67;24.70;;;;;;;;;;4972525;28;20101;-85
2023/03/09 06:55:22;;;;;;;185.88;166.38;;;;;;;;;;4972939;28;20050;-86
2023/03/09 06:57:58;;;;;;;84.97;76.57;;;;;;;;;;4974979;28;20121;-85
2023/03/09 07:00:26;;;;;;;316.80;267.55;;;;;;;;;;4980247;28;20385;-86
2023/03/09 07:02:59;;;;;;;21.95;13.60;;;;;;;;;;4971691;28;20053;-86
2023/03/09 07:05:27;;;;;;;29.45;26.85;;;;;;;;;;4981732;28;20116;-85
2023/03/09 07:07:54;;;;;;;15.85;14.60;;;;;;;;;;4982252;28;20042;-86
2023/03/09 07:10:21;;;;;;;4.90;4.57;;;;;;;;;;4990782;28;20038;-84
2023/03/09 07:12:49;;;;;;;30.45;26.30;;;;;;;;;;4993202;28;20057;-85
2023/03/09 07:15:17;;;;;;;1.13;0.52;;;;;;;;;;4993327;28;20054;-85
2023/03/09 07:17:45;;;;;;;130.30;118.57;;;;;;;;;;4992489;28;20508;-85
2023/03/09 07:20:13;;;;;;;111.28;100.47;;;;;;;;;;4975115;28;20042;-85
2023/03/09 07:22:41;;;;;;;17.67;16.05;;;;;;;;;;4991930;28;20127;-86
2023/03/09 07:25:09;;;;;;;32.78;30.55;;;;;;;;;;4982723;28;20468;-85
2023/03/09 07:27:37;;;;;;;9.23;8.38;;;;;;;;;;4983811;28;20291;-85
2023/03/09 07:30:06;;;;;;;27.92;25.15;;;;;;;;;;4992685;28;20046;-84
2023/03/09 07:32:33;;;;;;;0.50;0.40;;;;;;;;;;4990045;28;20054;-83
2023/03/09 07:35:01;;;;;;;60.10;53.60;;;;;;;;;;4983343;28;20580;-85
2023/03/09 07:37:28;;;;;;;0.40;0.40;;;;;;;;;;4992551;28;20069;-84
2023/03/09 07:39:55;;;;;;;0.40;0.30;;;;;;;;;;4991920;28;20046;-86
2023/03/09 07:42:22;;;;;;;114.35;49.35;;;;;;;;;;4982695;28;20046;-85
2023/03/09 07:45:26;;;;;;;0.40;0.40;;;;;;;;;;4990912;28;20419;-84
2023/03/09 07:47:53;;;;;;;11.70;9.07;;;;;;;;;;4981470;28;20074;-86
2023/03/09 07:50:21;;;;;;;19.60;18.05;;;;;;;;;;4974609;28;20054;-84
2023/03/09 07:52:49;;;;;;;3.17;2.97;;;;;;;;;;4991344;28;20617;-85
2023/03/09 07:55:18;;;;;;;0.82;0.50;;;;;;;;;;4974400;28;20057;-83
2023/03/09 07:57:45;;;;;;;13.82;12.63;;;;;;;;;;4991589;28;20058;-85
2023/03/09 08:00:13;;;;;;;50.47;46.78;;;;;;;;;;4992581;28;20518;-85
2023/03/09 08:02:41;;;;;;;17.33;16.02;;;;;;;;;;4992457;28;20138;-85
2023/03/09 08:05:09;;;;;;;0.40;0.30;;;;;;;;;;4991879;28;20050;-83
2023/03/09 08:07:36;;;;;;;0.57;0.40;;;;;;;;;;4992225;28;20119;-84
2023/03/09 08:10:04;;;;;;;0.57;0.57;;;;;;;;;;4991844;28;20062;-84
2023/03/09 08:12:32;;;;;;;125.90;91.70;;;;;;;;;;4972582;28;20340;-84
2023/03/09 08:14:59;;;;;;;89.47;80.70;;;;;;;;;;4972826;28;20055;-84
2023/03/09 08:17:27;;;;;;;0.82;0.70;;;;;;;;;;4989680;28;20105;-84
2023/03/09 08:19:55;;;;;;;1.38;0.40;;;;;;;;;;4988112;28;20049;-83
2023/03/09 08:22:23;;;;;;;0.90;0.70;;;;;;;;;;4975455;28;20109;-84
2023/03/09 08:24:50;;;;;;;58.13;53.08;;;;;;;;;;4975999;28;20047;-85
2023/03/09 08:27:18;;;;;;;1.05;0.50;;;;;;;;;;4974631;28;20046;-84
2023/03/09 08:29:47;;;;;;;16.25;14.98;;;;;;;;;;4987562;28;20038;-83
2023/03/09 08:32:15;;;;;;;3.08;2.88;;;;;;;;;;4987897;28;20042;-83
2023/03/09 08:34:42;;;;;;;1.15;1.15;;;;;;;;;;4990473;28;20050;-83
2023/03/09 08:37:10;;;;;;;834.58;577.42;;;;;;;;;;4988355;28;20058;-84
2023/03/09 08:39:38;;;;;;;3.70;3.15;;;;;;;;;;4990577;28;20081;-83
2023/03/09 08:42:05;;;;;;;1.02;0.73;;;;;;;;;;4972521;28;20034;-83
2023/03/09 08:44:32;;;;;;;1.10;0.50;;;;;;;;;;4990911;28;20050;-83
2023/03/09 08:47:00;;;;;;;14.90;13.65;;;;;;;;;;4996561;28;20100;-82
2023/03/09 08:49:27;;;;;;;14.35;12.93;;;;;;;;;;4994215;28;20128;-82
2023/03/09 08:51:55;;;;;;;157.45;139.57;;;;;;;;;;4995444;28;20113;-84
2023/03/09 08:54:22;;;;;;;8.27;7.55;;;;;;;;;;5010474;28;20109;-83
2023/03/09 08:56:49;;;;;;;36.88;33.92;;;;;;;;;;5012255;28;20026;-83
2023/03/09 08:59:17;;;;;;;1.73;1.20;;;;;;;;;;5001145;28;20101;-83
2023/03/09 09:01:44;;;;;;;8.18;7.63;;;;;;;;;;4980246;28;20692;-82
2023/03/09 09:04:11;;;;;;;4.85;4.38;;;;;;;;;;4991462;28;20034;-82
2023/03/09 09:06:38;;;;;;;2.70;0.50;;;;;;;;;;5008818;28;20379;-82
2023/03/09 09:09:06;;;;;;;4.00;3.00;;;;;;;;;;5010078;28;20038;-82
2023/03/09 09:11:33;;;;;;;13.82;12.60;;;;;;;;;;5013306;28;20050;-81
2023/03/09 09:14:00;;;;;;;25.65;23.52;;;;;;;;;;5009626;28;20054;-81
2023/03/09 09:16:29;;;;;;;2.10;1.13;;;;;;;;;;5013659;28;20042;-82
2023/03/09 09:18:57;;;;;;;2.25;1.38;;;;;;;;;;5013928;28;20034;-81
2023/03/09 09:21:28;;;;;;;154.25;139.63;;;;;;;;;;5008860;28;20512;-83
2023/03/09 09:23:55;;;;;;;4.53;1.20;;;;;;;;;;4999957;28;20061;-83
2023/03/09 09:26:22;;;;;;;34.85;31.80;;;;;;;;;;4990296;28;20058;-84
2023/03/09 09:28:50;;;;;;;2.00;1.00;;;;;;;;;;4989836;28;20519;-83
2023/03/09 09:31:19;;;;;;;1.95;0.93;;;;;;;;;;4989247;28;20057;-83
2023/03/09 09:33:51;;;;;;;1.70;1.20;;;;;;;;;;4977194;28;20106;-83
2023/03/09 09:36:19;;;;;;;1.70;1.60;;;;;;;;;;4991504;28;20129;-85
2023/03/09 09:38:48;;;;;;;7.85;1.00;;;;;;;;;;4975784;28;20165;-83
2023/03/09 09:41:16;;;;;;;83.00;61.50;;;;;;;;;;4973251;28;20042;-82
2023/03/09 09:43:44;;;;;;;8.95;7.65;;;;;;;;;;4989581;28;20054;-82
2023/03/09 09:46:13;;;;;;;3.58;1.10;;;;;;;;;;4989543;28;20054;-83
2023/03/09 09:48:41;;;;;;;132.50;105.10;;;;;;;;;;4990252;28;20090;-83
2023/03/09 09:51:27;;;;;;;2.45;1.10;;;;;;;;;;4990286;28;20096;-82
2023/03/09 09:54:00;;;;;;;9.13;8.18;;;;;;;;;;4973048;28;20053;-83
2023/03/09 09:56:34;;;;;;;5.82;1.50;;;;;;;;;;4989508;28;20050;-82
2023/03/09 09:59:06;;;;;;;43.88;40.42;;;;;;;;;;4992259;28;20117;-82
2023/03/09 10:01:45;;;;;;;46.38;33.67;;;;;;;;;;4981662;28;20373;-83
2023/03/09 10:04:16;;;;;;;11.05;10.02;;;;;;;;;;4990501;28;20046;-83
2023/03/09 10:06:44;;;;;;;4.00;0.93;;;;;;;;;;4989893;28;20375;-83
2023/03/09 10:09:21;;;;;;;4.93;0.95;;;;;;;;;;4989746;28;20283;-82
2023/03/09 10:11:52;;;;;;;25.63;18.75;;;;;;;;;;4999744;28;20056;-82
2023/03/09 10:14:25;;;;;;;4.95;2.70;;;;;;;;;;4986742;28;20055;-83
2023/03/09 10:17:02;;;;;;;63.10;56.67;;;;;;;;;;4988139;28;20057;-84
2023/03/09 10:19:32;;;;;;;4.15;1.05;;;;;;;;;;4984282;28;20043;-82
2023/03/09 10:22:02;;;;;;;6.05;2.00;;;;;;;;;;4988339;28;20050;-82
2023/03/09 10:24:33;;;;;;;5.43;1.42;;;;;;;;;;4984733;28;20098;-83
2023/03/09 10:27:22;;;;;;;4.28;1.67;;;;;;;;;;4993571;28;20129;-82
2023/03/09 10:32:01;;;;;;;3.05;1.35;;;;;;;;;;4984108;28;20054;-82
2023/03/09 10:40:04;;;;;;;;;;;;;;;;;;;;;
2023/03/09 10:43:01;;;;;;;3.05;1.45;;;;;;;;;;4986604;28;20097;-78
2023/03/09 10:45:29;;;;;;;2.28;1.20;;;;;;;;;;4983787;28;20572;-80
2023/03/09 10:48:02;;;;;;;303.33;269.52;;;;;;;;;;4992639;28;20061;-78
2023/03/09 10:50:31;;;;;;;2.53;1.05;;;;;;;;;;4990277;28;20038;-79
2023/03/09 10:53:19;;;;;;;3.45;1.08;;;;;;;;;;4987719;28;20085;-82
2023/03/09 10:55:46;;;;;;;10.45;5.38;;;;;;;;;;4987568;28;20038;-79
2023/03/09 10:58:23;;;;;;;2.38;1.50;;;;;;;;;;4985790;28;20046;-79
2023/03/09 11:00:54;;;;;;;3.95;1.45;;;;;;;;;;4985945;28;20047;-82
2023/03/09 11:03:23;;;;;;;4.07;1.30;;;;;;;;;;4985949;28;20604;-81
2023/03/09 11:05:51;;;;;;;88.82;81.70;;;;;;;;;;4986189;28;20393;-78
2023/03/09 11:08:23;;;;;;;1.85;0.80;;;;;;;;;;4986180;28;20039;-79
2023/03/09 11:11:00;;;;;;;0.90;0.88;;;;;;;;;;4985524;28;20034;-78
2023/03/09 11:13:28;;;;;;;32.10;29.13;;;;;;;;;;4981505;28;20489;-79
2023/03/09 11:16:15;;;;;;;23.10;12.35;;;;;;;;;;4967568;28;20501;-78
2023/03/09 11:18:43;;;;;;;345.98;280.70;;;;;;;;;;4985943;28;20559;-78
2023/03/09 11:21:20;;;;;;;5.55;1.15;;;;;;;;;;4987125;28;20046;-79
2023/03/09 11:23:50;;;;;;;0.70;0.70;;;;;;;;;;4984119;28;20082;-82
2023/03/09 11:26:23;;;;;;;3.70;0.93;;;;;;;;;;4986027;28;20130;-78
2023/03/09 11:29:06;;;;;;;1.48;0.98;;;;;;;;;;4986052;28;20137;-81
2023/03/09 11:31:36;;;;;;;170.32;152.13;;;;;;;;;;4984009;28;20479;-78
2023/03/09 11:34:06;;;;;;;136.13;110.45;;;;;;;;;;4987326;28;20872;-76
2023/03/09 11:36:34;;;;;;;54.63;49.58;;;;;;;;;;4982092;28;20042;-77
2023/03/09 11:39:03;;;;;;;17.95;16.25;;;;;;;;;;4965871;28;20073;-76
2023/03/09 11:41:37;;;;;;;39.47;35.88;;;;;;;;;;4980305;28;20874;-79
2023/03/09 11:44:12;;;;;;;6.97;1.00;;;;;;;;;;4976229;28;20053;-81
2023/03/09 11:46:40;;;;;;;19.70;17.65;;;;;;;;;;4980370;28;20049;-82
2023/03/09 11:49:11;;;;;;;8.20;7.38;;;;;;;;;;4962268;28;20133;-82
2023/03/09 11:51:44;;;;;;;1.98;1.00;;;;;;;;;;4961401;28;20048;-80
2023/03/09 11:54:21;;;;;;;1.90;0.77;;;;;;;;;;4962719;28;20074;-81
2023/03/09 11:56:49;;;;;;;13.55;8.48;;;;;;;;;;4969142;28;20993;-79
2023/03/09 11:59:26;;;;;;;5.25;1.02;;;;;;;;;;4982144;28;20179;-81
2023/03/09 12:01:59;;;;;;;2.83;0.88;;;;;;;;;;4982152;28;20046;-79
2023/03/09 12:04:27;;;;;;;23.67;21.10;;;;;;;;;;4981608;28;20053;-81
2023/03/09 12:07:03;;;;;;;435.10;311.52;;;;;;;;;;4979492;28;20050;-82
2023/03/09 12:09:30;;;;;;;2.38;1.00;;;;;;;;;;4981807;28;20050;-80
2023/03/09 12:12:18;;;;;;;4.13;1.42;;;;;;;;;;4986662;28;20054;-78
2023/03/09 12:14:48;;;;;;;2.30;1.13;;;;;;;;;;4987476;28;20125;-78
2023/03/09 12:17:18;;;;;;;2.80;0.90;;;;;;;;;;4975407;28;20407;-78
2023/03/09 12:19:48;;;;;;;3.38;2.97;;;;;;;;;;4961695;28;20050;-77
2023/03/09 12:22:15;;;;;;;18.35;16.70;;;;;;;;;;4980960;28;20433;-77
2023/03/09 12:24:44;;;;;;;353.02;301.58;;;;;;;;;;4980737;28;20049;-79
2023/03/09 12:27:16;;;;;;;73.57;59.55;;;;;;;;;;4982379;28;20038;-79
2023/03/09 12:29:48;;;;;;;6.93;6.00;;;;;;;;;;4982711;28;20160;-77
2023/03/09 12:32:22;;;;;;;38.28;34.63;;;;;;;;;;4981782;28;20559;-78
2023/03/09 12:34:51;;;;;;;2.72;0.98;;;;;;;;;;4980323;28;20129;-78
2023/03/09 12:37:38;;;;;;;10.85;9.73;;;;;;;;;;4981720;28;20100;-79
2023/03/09 12:40:25;;;;;;;0.95;0.95;;;;;;;;;;4982063;28;20117;-78
2023/03/09 12:42:57;;;;;;;3.08;1.48;;;;;;;;;;4979664;28;20097;-78
2023/03/09 12:45:26;;;;;;;18.08;16.30;;;;;;;;;;4979553;28;20064;-80
2023/03/09 12:48:12;;;;;;;1.00;0.90;;;;;;;;;;4978976;28;20050;-79
2023/03/09 12:50:39;;;;;;;2.40;0.70;;;;;;;;;;4980248;28;20559;-78
2023/03/09 12:53:23;;;;;;;1.90;1.30;;;;;;;;;;4962868;28;20070;-80
2023/03/09 12:55:52;;;;;;;20.27;17.58;;;;;;;;;;4979999;28;20060;-80
2023/03/09 12:58:24;;;;;;;4.30;0.80;;;;;;;;;;4980818;28;20042;-79
2023/03/09 13:01:08;;;;;;;0.80;0.70;;;;;;;;;;4981075;28;20042;-79
2023/03/09 13:03:52;;;;;;;3.88;0.90;;;;;;;;;;4961358;28;20040;-79
2023/03/09 13:06:38;;;;;;;1.15;1.00;;;;;;;;;;4944691;28;20481;-78
2023/03/09 13:09:15;;;;;;;36.83;33.60;;;;;;;;;;4961557;28;20529;-78
2023/03/09 13:12:06;;;;;;;1.45;0.82;;;;;;;;;;4961948;28;20436;-78
2023/03/09 13:14:33;;;;;;;3.85;1.73;;;;;;;;;;4938933;28;20185;-78
2023/03/09 13:17:23;;;;;;;0.73;0.60;;;;;;;;;;4973831;28;20058;-78
2023/03/09 13:19:52;;;;;;;1.00;0.70;;;;;;;;;;4976758;28;20050;-78
2023/03/09 13:22:21;;;;;;;5.10;4.78;;;;;;;;;;4979560;28;20393;-79
2023/03/09 13:24:50;;;;;;;60.22;54.65;;;;;;;;;;4979716;28;20456;-78
2023/03/09 13:27:22;;;;;;;0.88;0.80;;;;;;;;;;4980424;28;20049;-78
2023/03/09 13:29:54;;;;;;;1.95;0.68;;;;;;;;;;4978644;28;20101;-77
2023/03/09 13:32:30;;;;;;;1.27;0.73;;;;;;;;;;4978282;28;20048;-77
2023/03/09 13:35:00;;;;;;;93.10;83.38;;;;;;;;;;4979666;28;20420;-78
2023/03/09 13:37:29;;;;;;;104.15;67.65;;;;;;;;;;4979811;28;20117;-78
2023/03/09 13:39:58;;;;;;;34.60;19.40;;;;;;;;;;4985488;28;20244;-78
2023/03/09 13:42:25;;;;;;;2.80;0.90;;;;;;;;;;4946695;28;1107807;-81
2023/03/09 13:44:53;;;;;;;1.75;0.88;;;;;;;;;;4979517;28;20145;-77
2023/03/09 13:47:25;;;;;;;0.77;0.68;;;;;;;;;;4981032;28;20050;-78
2023/03/09 13:49:53;;;;;;;2.47;0.68;;;;;;;;;;4986169;28;20046;-78
2023/03/09 13:52:21;;;;;;;0.88;0.60;;;;;;;;;;4982139;28;20054;-79
2023/03/09 13:54:50;;;;;;;3.28;0.82;;;;;;;;;;4980473;28;20050;-76
2023/03/09 13:57:18;;;;;;;4.72;0.80;;;;;;;;;;4980838;28;20348;-78
2023/03/09 13:59:46;;;;;;;1.45;0.60;;;;;;;;;;4980725;28;20093;-79
2023/03/09 14:02:13;;;;;;;2.85;0.63;;;;;;;;;;4981736;28;20081;-79
2023/03/09 14:05:04;;;;;;;1.20;0.50;;;;;;;;;;4980700;28;20050;-79
2023/03/09 14:07:53;;;;;;;1.00;0.90;;;;;;;;;;4977740;28;20133;-78
2023/03/09 14:10:28;;;;;;;0.63;0.50;;;;;;;;;;4980664;28;20043;-80
2023/03/09 14:12:59;;;;;;;2.03;1.02;;;;;;;;;;4978288;28;20050;-80
2023/03/09 14:15:27;;;;;;;2.08;0.60;;;;;;;;;;4988301;28;20491;-78
2023/03/09 14:17:54;;;;;;;2.38;0.68;;;;;;;;;;4985580;28;20389;-77
2023/03/09 14:20:23;;;;;;;1.50;0.60;;;;;;;;;;4987832;28;20050;-78
2023/03/09 14:22:51;;;;;;;0.82;0.70;;;;;;;;;;4986974;28;20223;-79
2023/03/09 14:25:36;;;;;;;1.08;0.75;;;;;;;;;;4989146;28;20046;-77
2023/03/09 14:28:23;;;;;;;1.42;0.70;;;;;;;;;;4988061;28;20601;-79
2023/03/09 14:30:50;;;;;;;1.45;0.70;;;;;;;;;;4989118;28;20229;-77
2023/03/09 14:33:28;;;;;;;1.17;1.05;;;;;;;;;;4988806;28;20077;-79
2023/03/09 14:36:07;;;;;;;0.60;0.60;;;;;;;;;;4989500;28;20042;-78
2023/03/09 14:38:35;;;;;;;1.50;0.55;;;;;;;;;;4989091;28;20057;-78
2023/03/09 14:41:06;;;;;;;0.60;0.60;;;;;;;;;;4990394;28;20133;-79
2023/03/09 14:43:33;;;;;;;1.92;0.90;;;;;;;;;;4989718;28;20096;-78
2023/03/09 14:46:11;;;;;;;3.40;0.70;;;;;;;;;;4989022;28;20130;-79
2023/03/09 14:48:39;;;;;;;1.33;0.75;;;;;;;;;;4993637;28;20049;-81
2023/03/09 14:51:12;;;;;;;1.70;0.60;;;;;;;;;;4989388;28;20061;-77
2023/03/09 14:53:58;;;;;;;2.47;1.10;;;;;;;;;;4989017;28;20038;-76
2023/03/09 14:56:26;;;;;;;1.92;1.23;;;;;;;;;;4972803;28;20056;-76
2023/03/09 14:58:53;;;;;;;4.72;1.42;;;;;;;;;;4990253;28;20038;-77
2023/03/09 15:01:21;;;;;;;3.28;1.35;;;;;;;;;;4989882;28;20047;-80